createdAt,value
2023-02-01T00:04:23.491Z,71.67
2023-02-01T00:09:25.694Z,71.30
2023-02-01T00:14:26.412Z,70.89
2023-02-01T00:19:27.063Z,71.47
2023-02-01T00:24:29.268Z,71.51
2023-02-01T00:29:29.919Z,70.76
2023-02-01T00:34:30.569Z,71.28
2023-02-01T00:39:33.050Z,70.98
2023-02-01T00:44:36.239Z,70.66
2023-02-01T00:49:36.901Z,71.06
2023-02-01T00:54:38.890Z,70.02
2023-02-01T00:59:39.665Z,70.86
2023-02-01T01:04:40.359Z,69.45
2023-02-01T01:09:42.438Z,69.46
2023-02-01T01:14:43.157Z,69.37
2023-02-01T01:19:43.824Z,69.75
2023-02-01T01:24:46.130Z,69.57
2023-02-01T01:29:46.865Z,68.57
2023-02-01T01:34:47.665Z,68.84
2023-02-01T01:39:49.774Z,68.63
2023-02-01T01:45:04.689Z,67.56
2023-02-01T01:50:11.280Z,67.20
2023-02-01T01:55:15.158Z,67.46
2023-02-01T02:00:21.100Z,67.27
2023-02-01T02:05:22.939Z,67.90
2023-02-01T02:10:45.264Z,67.45
2023-02-01T02:15:54.861Z,67.32
2023-02-01T02:21:11.581Z,65.92
2023-02-01T02:26:35.833Z,66.22
2023-02-01T02:32:00.728Z,65.74
2023-02-01T02:37:12.116Z,66.17
2023-02-01T02:42:34.436Z,66.13
2023-02-01T02:47:41.977Z,66.06
2023-02-01T02:53:07.510Z,66.85
2023-02-01T02:58:27.987Z,67.22
2023-02-01T03:03:46.224Z,66.34
2023-02-01T03:08:48.346Z,66.83
2023-02-01T03:13:54.019Z,67.04
2023-02-01T03:18:58.951Z,67.04
2023-02-01T03:24:05.048Z,66.86
2023-02-01T03:29:15.317Z,67.05
2023-02-01T03:34:17.476Z,67.36
2023-02-01T03:39:26.778Z,66.59
2023-02-01T03:44:32.586Z,67.06
2023-02-01T03:49:36.767Z,66.95
2023-02-01T03:54:41.486Z,66.28
2023-02-01T03:59:42.674Z,65.84
2023-02-01T04:04:43.378Z,66.84
2023-02-01T04:09:47.153Z,66.00
2023-02-01T04:14:47.813Z,65.78
2023-02-01T04:19:48.687Z,66.22
2023-02-01T04:24:50.876Z,65.17
2023-02-01T04:29:51.616Z,64.82
2023-02-01T04:34:52.267Z,65.58
2023-02-01T04:39:54.257Z,65.71
2023-02-01T04:44:54.963Z,65.13
2023-02-01T04:49:55.846Z,65.28
2023-02-01T04:54:59.417Z,65.00
2023-02-01T05:00:00.214Z,65.13
2023-02-01T05:05:01.959Z,64.55
2023-02-01T05:10:04.894Z,64.79
2023-02-01T05:15:06.729Z,65.35
2023-02-01T05:20:08.673Z,64.33
2023-02-01T05:25:11.276Z,64.01
2023-02-01T05:30:13.114Z,64.40
2023-02-01T05:35:13.784Z,63.79
2023-02-01T05:40:15.950Z,63.38
2023-02-01T05:45:16.711Z,63.91
2023-02-01T05:50:17.844Z,64.05
2023-02-01T05:55:19.931Z,63.94
2023-02-01T06:00:22.518Z,63.79
2023-02-01T06:05:23.677Z,64.19
2023-02-01T06:10:26.105Z,65.37
2023-02-01T06:15:26.918Z,65.23
2023-02-01T06:20:28.709Z,64.28
2023-02-01T06:25:30.781Z,64.68
2023-02-01T06:30:31.516Z,63.70
2023-02-01T06:35:32.454Z,64.40
2023-02-01T06:40:34.602Z,64.94
2023-02-01T06:45:35.563Z,64.71
2023-02-01T06:50:36.254Z,66.56
2023-02-01T06:55:38.422Z,66.33
2023-02-01T07:00:39.356Z,66.85
2023-02-01T07:05:40.114Z,66.18
2023-02-01T07:10:42.432Z,66.36
2023-02-01T07:15:43.136Z,67.32
2023-02-01T07:20:43.812Z,68.16
2023-02-01T07:25:45.844Z,70.20
2023-02-01T07:30:51.730Z,73.53
2023-02-01T07:35:52.851Z,74.77
2023-02-01T07:40:59.338Z,75.52
2023-02-01T07:46:01.449Z,76.41
2023-02-01T07:51:03.648Z,75.87
2023-02-01T07:56:12.209Z,74.89
2023-02-01T08:01:25.649Z,74.51
2023-02-01T08:06:27.199Z,72.04
2023-02-01T08:11:29.535Z,71.99
2023-02-01T08:16:30.321Z,72.67
2023-02-01T08:21:37.488Z,71.64
2023-02-01T08:26:39.877Z,72.16
2023-02-01T08:31:42.879Z,73.89
2023-02-01T08:36:43.689Z,74.27
2023-02-01T08:42:06.492Z,71.90
2023-02-01T08:47:07.189Z,71.10
2023-02-01T08:52:15.818Z,68.28
2023-02-01T08:57:18.821Z,66.92
2023-02-01T09:02:20.318Z,66.20
2023-02-01T09:07:21.082Z,65.50
2023-02-01T09:12:23.232Z,64.91
2023-02-01T09:17:23.989Z,64.66
2023-02-01T09:22:24.684Z,65.06
2023-02-01T09:27:26.758Z,67.00
2023-02-01T09:32:27.658Z,67.73
2023-02-01T09:37:28.410Z,70.24
2023-02-01T09:42:58.804Z,71.85
2023-02-01T09:48:04.477Z,73.21
2023-02-01T09:53:08.830Z,76.87
2023-02-01T09:58:17.084Z,79.76
2023-02-01T10:03:18.489Z,80.63
2023-02-01T10:08:28.105Z,81.85
2023-02-01T10:13:46.655Z,82.29
2023-02-01T10:19:05.351Z,82.94
2023-02-01T10:24:27.179Z,82.70
2023-02-01T10:29:36.670Z,83.26
2023-02-01T10:34:38.774Z,82.61
2023-02-01T10:39:39.553Z,82.50
2023-02-01T10:44:47.986Z,81.93
2023-02-01T10:49:57.008Z,81.58
2023-02-01T10:54:57.677Z,80.81
2023-02-01T10:59:59.725Z,79.59
2023-02-01T11:05:02.637Z,76.57
2023-02-01T11:10:03.343Z,75.93
2023-02-01T11:15:20.349Z,75.17
2023-02-01T11:20:23.581Z,74.84
2023-02-01T11:25:26.684Z,73.51
2023-02-01T11:30:35.290Z,73.34
2023-02-01T11:35:40.207Z,72.62
2023-02-01T11:40:41.001Z,71.58
2023-02-01T11:45:43.167Z,70.22
2023-02-01T11:50:51.175Z,69.92
2023-02-01T11:56:07.375Z,70.56
2023-02-01T12:01:29.169Z,72.08
2023-02-01T12:06:36.890Z,71.64
2023-02-01T12:11:48.702Z,71.78
2023-02-01T12:17:05.609Z,71.51
2023-02-01T12:22:17.555Z,69.88
2023-02-01T12:27:44.221Z,69.56
2023-02-01T12:33:05.840Z,68.96
2023-02-01T12:38:29.455Z,67.75
2023-02-01T12:43:43.723Z,67.87
2023-02-01T12:48:57.961Z,67.39
2023-02-01T12:54:05.901Z,68.42
2023-02-01T12:59:19.862Z,68.18
2023-02-01T13:04:28.310Z,67.64
2023-02-01T13:09:35.351Z,67.84
2023-02-01T13:14:42.009Z,67.40
2023-02-01T13:19:50.784Z,66.83
2023-02-01T13:24:56.217Z,67.97
2023-02-01T13:30:00.412Z,67.08
2023-02-01T13:35:41.155Z,66.72
2023-02-01T13:40:46.822Z,65.91
2023-02-01T13:45:51.641Z,63.88
2023-02-01T13:50:57.106Z,63.58
2023-02-01T13:56:00.416Z,63.90
2023-02-01T14:01:34.991Z,62.56
2023-02-01T14:06:46.486Z,62.21
2023-02-01T14:11:50.460Z,62.21
2023-02-01T14:17:36.206Z,61.50
2023-02-01T14:22:38.761Z,61.13
2023-02-01T14:27:39.488Z,60.41
2023-02-01T14:32:42.617Z,60.94
2023-02-01T14:37:46.861Z,60.31
2023-02-01T14:42:49.294Z,59.77
2023-02-01T14:47:50.980Z,60.54
2023-02-01T14:53:21.400Z,60.75
2023-02-01T14:58:34.145Z,61.48
2023-02-01T15:03:49.953Z,61.94
2023-02-01T15:08:56.557Z,60.79
2023-02-01T15:13:58.199Z,61.41
2023-02-01T15:19:13.380Z,61.09
2023-02-01T15:24:20.571Z,63.08
2023-02-01T15:29:22.964Z,66.40
2023-02-01T15:34:23.913Z,67.47
2023-02-01T15:39:27.192Z,66.15
2023-02-01T15:44:36.536Z,67.10
2023-02-01T15:49:41.159Z,64.74
2023-02-01T15:54:49.913Z,63.98
2023-02-01T15:59:51.798Z,63.32
2023-02-01T16:04:52.477Z,63.31
2023-02-01T16:09:56.470Z,64.11
2023-02-01T16:14:57.198Z,67.07
2023-02-01T16:19:58.969Z,68.53
2023-02-01T16:25:01.002Z,70.51
2023-02-01T16:30:01.691Z,71.24
2023-02-01T16:35:02.396Z,73.10
2023-02-01T16:40:04.808Z,74.33
2023-02-01T16:45:06.526Z,76.21
2023-02-01T16:50:23.046Z,78.26
2023-02-01T16:55:26.941Z,78.55
2023-02-01T17:00:28.546Z,79.28
2023-02-01T17:05:29.833Z,80.36
2023-02-01T17:10:34.073Z,81.11
2023-02-01T17:15:37.375Z,86.15
2023-02-01T17:20:38.618Z,86.24
2023-02-01T17:25:41.986Z,86.32
2023-02-01T17:30:43.124Z,86.24
2023-02-01T17:35:43.792Z,85.62
2023-02-01T17:40:45.862Z,85.32
2023-02-01T17:45:52.589Z,84.57
2023-02-01T17:50:58.637Z,83.83
2023-02-01T17:56:01.699Z,82.62
2023-02-01T18:01:02.461Z,81.32
2023-02-01T18:06:03.262Z,81.04
2023-02-01T18:11:11.320Z,80.16
2023-02-01T18:16:20.876Z,80.25
2023-02-01T18:21:24.467Z,79.54
2023-02-01T18:26:26.576Z,80.49
2023-02-01T18:31:32.231Z,80.33
2023-02-01T18:36:33.037Z,80.23
2023-02-01T18:41:35.136Z,79.92
2023-02-01T18:46:35.849Z,80.74
2023-02-01T18:51:36.817Z,79.95
2023-02-01T18:56:39.074Z,80.53
2023-02-01T19:01:40.410Z,79.45
2023-02-01T19:06:41.179Z,79.83
2023-02-01T19:11:43.225Z,79.93
2023-02-01T19:16:44.441Z,79.13
2023-02-01T19:21:45.415Z,78.84
2023-02-01T19:26:49.386Z,78.15
2023-02-01T19:31:50.180Z,78.01
2023-02-01T19:36:50.987Z,77.14
2023-02-01T19:41:53.162Z,76.90
2023-02-01T19:46:53.903Z,76.73
2023-02-01T19:51:55.386Z,76.48
2023-02-01T19:56:57.561Z,76.98
2023-02-01T20:02:00.238Z,76.89
2023-02-01T20:07:00.962Z,77.85
2023-02-01T20:12:03.514Z,76.42
2023-02-01T20:17:05.327Z,77.19
2023-02-01T20:22:06.338Z,77.28
2023-02-01T20:27:13.027Z,76.98
2023-02-01T20:32:13.780Z,76.22
2023-02-01T20:37:14.487Z,76.89
2023-02-01T20:42:16.604Z,79.39
2023-02-01T20:47:17.288Z,81.49
2023-02-01T20:52:18.012Z,83.11
2023-02-01T20:57:20.088Z,83.33
2023-02-01T21:02:22.262Z,82.58
2023-02-01T21:07:23.061Z,81.27
2023-02-01T21:12:25.301Z,80.69
2023-02-01T21:17:28.668Z,80.23
2023-02-01T21:22:29.347Z,79.60
2023-02-01T21:27:31.422Z,78.81
2023-02-01T21:32:32.248Z,78.91
2023-02-01T21:37:32.952Z,78.61
2023-02-01T21:42:35.040Z,78.96
2023-02-01T21:47:35.811Z,78.39
2023-02-01T21:52:39.021Z,77.80
2023-02-01T21:57:41.636Z,77.81
2023-02-01T22:02:42.512Z,78.55
2023-02-01T22:07:43.213Z,77.82
2023-02-01T22:12:46.319Z,77.71
2023-02-01T22:17:47.107Z,78.05
2023-02-01T22:22:48.975Z,78.23
2023-02-01T22:28:30.472Z,79.20
2023-02-01T22:33:13.248Z,79.21
2023-02-01T22:38:13.893Z,78.91
2023-02-01T22:43:15.969Z,78.42
2023-02-01T22:48:16.640Z,77.78
2023-02-01T22:53:17.276Z,78.03
2023-02-01T22:58:19.325Z,77.61
2023-02-01T23:03:20.109Z,77.99
2023-02-01T23:08:20.792Z,77.27
2023-02-01T23:13:22.804Z,76.13
2023-02-01T23:18:24.418Z,76.15
2023-02-01T23:23:25.063Z,74.68
2023-02-01T23:28:27.172Z,75.00
2023-02-01T23:33:28.801Z,74.94
2023-02-01T23:38:30.526Z,75.00
2023-02-01T23:43:50.082Z,75.50
2023-02-01T23:48:52.084Z,75.88
2023-02-01T23:53:53.467Z,76.35
2023-02-01T23:58:56.871Z,75.54
